Time;durP1;ratioP1;P1;durP2;ratioP2;P2;SDS_P1;SDS_P2;PMS_P1;PMS_P2;Temp;Humidity;BMP_temperature;BMP_pressure;BME280_temperature;BME280_humidity;BME280_pressure;Samples;Min_cycle;Max_cycle;Signal;HPM_P1;HPM_P2
2022/08/28 00:00:27;;;;;;;20.90;18.65;;;;;;;17.46;100.00;95597.44;5039746;28;20272;-79
2022/08/28 00:02:54;;;;;;;20.27;18.17;;;;;;;17.44;100.00;95592.38;5015760;28;20186;-80
2022/08/28 00:05:22;;;;;;;21.27;18.95;;;;;;;17.49;100.00;95599.69;5030061;28;20687;-81
2022/08/28 00:07:50;;;;;;;20.15;18.05;;;;;;;17.45;100.00;95599.25;5018732;28;20184;-80
2022/08/28 00:10:19;;;;;;;22.17;18.98;;;;;;;17.52;100.00;95604.56;5021532;28;20217;-80
2022/08/28 00:12:45;;;;;;;21.63;19.08;;;;;;;17.50;100.00;95602.13;5025326;28;20636;-80
2022/08/28 00:15:15;;;;;;;19.50;17.65;;;;;;;17.59;100.00;95602.00;5028423;28;20208;-78
2022/08/28 00:17:40;;;;;;;20.48;17.80;;;;;;;17.51;100.00;95605.56;5016917;28;20181;-80
2022/08/28 00:20:08;;;;;;;20.15;17.83;;;;;;;17.47;100.00;95606.94;5050224;28;20220;-80
2022/08/28 00:22:33;;;;;;;20.08;17.85;;;;;;;17.51;100.00;95597.69;5011974;28;20202;-81
2022/08/28 00:24:58;;;;;;;18.08;15.52;;;;;;;17.52;100.00;95599.31;5016168;28;20193;-81
2022/08/28 00:30:08;;;;;;;18.60;16.60;;;;;;;17.49;100.00;95608.41;5023926;28;20272;-80
2022/08/28 00:32:34;;;;;;;18.98;17.08;;;;;;;17.58;100.00;95603.81;5018049;28;20233;-79
2022/08/28 00:35:00;;;;;;;18.88;16.85;;;;;;;17.62;100.00;95591.13;5015821;28;20198;-78
2022/08/28 00:37:26;;;;;;;18.67;16.52;;;;;;;17.55;100.00;95596.31;5015918;28;20185;-79
2022/08/28 00:39:52;;;;;;;22.90;18.25;;;;;;;17.58;100.00;95593.31;5023294;28;20205;-80
2022/08/28 00:42:17;;;;;;;18.60;16.60;;;;;;;17.53;100.00;95595.69;5023108;28;20182;-80
2022/08/28 00:44:44;;;;;;;19.80;17.15;;;;;;;17.50;100.00;95598.69;5036042;28;20197;-80
2022/08/28 00:47:09;;;;;;;21.80;18.63;;;;;;;17.52;100.00;95596.69;5000295;28;20206;-79
2022/08/28 00:49:36;;;;;;;18.77;16.88;;;;;;;17.54;100.00;95594.69;5015671;28;20536;-80
2022/08/28 00:52:04;;;;;;;17.52;15.82;;;;;;;17.61;100.00;95598.19;5018496;28;20182;-78
2022/08/28 00:54:32;;;;;;;21.50;17.80;;;;;;;17.60;100.00;95595.75;5020225;28;20185;-80
2022/08/28 00:56:59;;;;;;;20.02;17.83;;;;;;;17.54;100.00;95597.31;5006183;28;20604;-78
2022/08/28 00:59:25;;;;;;;21.08;17.95;;;;;;;17.51;100.00;95592.44;5019885;28;20187;-79
2022/08/28 01:01:54;;;;;;;19.73;17.58;;;;;;;17.52;100.00;95586.19;5031046;28;20201;-79
2022/08/28 01:04:21;;;;;;;20.23;17.83;;;;;;;17.52;100.00;95592.25;5032125;28;20239;-78
2022/08/28 01:06:51;;;;;;;22.10;17.98;;;;;;;17.46;100.00;95594.81;5016136;28;20245;-78
2022/08/28 01:09:16;;;;;;;24.02;19.70;;;;;;;17.43;100.00;95587.31;5024585;28;20179;-78
2022/08/28 01:11:43;;;;;;;22.35;18.15;;;;;;;17.47;100.00;95591.19;5031897;28;20182;-78
2022/08/28 01:14:13;;;;;;;19.95;17.08;;;;;;;17.52;100.00;95594.06;5027187;28;20174;-80
2022/08/28 01:16:39;;;;;;;20.85;17.83;;;;;;;17.53;100.00;95587.81;5020429;28;20599;-79
2022/08/28 01:19:07;;;;;;;21.92;18.90;;;;;;;17.52;100.00;95594.06;4998093;28;20182;-79
2022/08/28 01:21:45;;;;;;;22.67;20.08;;;;;;;17.43;100.00;95600.44;5017680;28;20245;-79
2022/08/28 01:24:14;;;;;;;22.00;19.45;;;;;;;17.36;100.00;95596.94;5020854;28;20186;-78
2022/08/28 01:26:39;;;;;;;22.13;19.85;;;;;;;17.39;100.00;95591.31;5024770;28;20204;-78
2022/08/28 01:29:07;;;;;;;21.63;19.17;;;;;;;17.34;100.00;95591.09;5011410;28;20182;-77
2022/08/28 01:31:33;;;;;;;22.80;20.38;;;;;;;17.33;100.00;95592.91;5031577;28;20193;-79
2022/08/28 01:33:59;;;;;;;21.63;19.42;;;;;;;17.36;100.00;95589.88;5030814;28;20173;-80
2022/08/28 01:36:25;;;;;;;23.08;19.95;;;;;;;17.46;100.00;95589.56;5015806;28;20205;-79
2022/08/28 01:39:12;;;;;;;21.65;19.25;;;;;;;17.39;100.00;95594.75;5007667;28;20190;-79
2022/08/28 01:41:39;;;;;;;23.58;20.63;;;;;;;17.36;100.00;95592.50;5023641;28;20214;-78
2022/08/28 01:44:05;;;;;;;24.02;20.63;;;;;;;17.37;100.00;95585.44;5028019;28;20474;-79
2022/08/28 01:46:30;;;;;;;26.05;20.50;;;;;;;17.36;100.00;95595.13;5031786;28;20201;-78
2022/08/28 01:48:56;;;;;;;21.45;19.17;;;;;;;17.33;100.00;95585.03;5046478;28;20550;-78
2022/08/28 01:51:21;;;;;;;25.27;21.33;;;;;;;17.24;100.00;95581.72;5027075;28;20178;-79
2022/08/28 01:53:46;;;;;;;29.50;22.77;;;;;;;17.19;100.00;95589.31;5020918;28;20178;-79
2022/08/28 01:56:13;;;;;;;25.77;21.85;;;;;;;17.30;100.00;95588.00;5014516;28;20214;-78
2022/08/28 01:58:39;;;;;;;26.23;20.88;;;;;;;17.24;100.00;95592.22;5011702;28;20644;-80
2022/08/28 02:01:12;;;;;;;24.38;21.52;;;;;;;17.26;100.00;95586.78;5031122;28;20304;-78
2022/08/28 02:03:38;;;;;;;25.30;21.63;;;;;;;17.19;100.00;95583.25;5029982;28;20189;-79
2022/08/28 02:06:04;;;;;;;22.25;19.17;;;;;;;17.23;100.00;95587.16;5026458;28;20208;-80
2022/08/28 02:08:29;;;;;;;26.27;22.33;;;;;;;17.10;100.00;95582.56;5014673;28;20225;-79
2022/08/28 02:10:55;;;;;;;24.45;21.88;;;;;;;17.14;100.00;95585.63;5020330;28;20607;-79
2022/08/28 02:13:21;;;;;;;24.75;20.55;;;;;;;17.15;100.00;95585.47;5000236;28;20187;-78
2022/08/28 02:15:46;;;;;;;28.98;22.08;;;;;;;17.05;100.00;95587.59;5012986;28;20253;-78
2022/08/28 02:18:12;;;;;;;24.25;21.25;;;;;;;17.04;100.00;95585.94;5015216;28;20187;-79
2022/08/28 02:20:38;;;;;;;33.38;23.02;;;;;;;16.96;100.00;95593.91;5018566;28;20199;-80
2022/08/28 02:23:04;;;;;;;26.17;22.63;;;;;;;16.90;100.00;95590.25;5021847;28;20252;-79
2022/08/28 02:25:30;;;;;;;28.48;21.55;;;;;;;16.87;100.00;95592.41;5024606;28;20212;-79
2022/08/28 02:27:55;;;;;;;29.30;23.70;;;;;;;16.84;100.00;95585.72;5030637;28;20182;-80
2022/08/28 02:30:21;;;;;;;27.48;21.42;;;;;;;16.83;100.00;95593.78;5018416;28;20225;-79
2022/08/28 02:32:46;;;;;;;27.60;23.83;;;;;;;16.77;100.00;95591.91;5033700;28;20193;-78
2022/08/28 02:35:14;;;;;;;28.67;23.60;;;;;;;16.72;100.00;95596.91;5034665;28;20238;-79
2022/08/28 02:37:41;;;;;;;35.13;24.35;;;;;;;16.75;100.00;95601.78;5017833;28;20642;-79
2022/08/28 02:40:07;;;;;;;31.00;24.25;;;;;;;16.82;100.00;95603.47;5023608;28;20621;-79
2022/08/28 02:42:33;;;;;;;31.63;24.98;;;;;;;16.92;100.00;95593.50;5014897;28;20183;-78
2022/08/28 02:44:58;;;;;;;30.05;24.20;;;;;;;17.08;100.00;95602.13;4999876;28;20192;-79
2022/08/28 02:47:24;;;;;;;31.02;26.15;;;;;;;17.09;100.00;95598.50;5001498;28;20226;-78
2022/08/28 02:49:49;;;;;;;35.78;26.92;;;;;;;17.10;100.00;95594.88;5005450;28;20268;-79
2022/08/28 02:52:15;;;;;;;31.58;25.00;;;;;;;17.16;100.00;95600.22;5008682;28;20314;-79
2022/08/28 02:54:40;;;;;;;30.65;24.75;;;;;;;17.17;100.00;95596.56;5011252;28;20178;-79
2022/08/28 02:57:07;;;;;;;29.25;24.17;;;;;;;17.26;100.00;95594.66;5014488;28;20275;-78
2022/08/28 02:59:35;;;;;;;36.40;27.70;;;;;;;17.19;100.00;95597.19;5034213;28;20247;-79
2022/08/28 03:02:02;;;;;;;38.85;29.20;;;;;;;17.19;100.00;95599.81;5032940;28;20224;-79
2022/08/28 03:04:30;;;;;;;39.40;29.48;;;;;;;17.22;100.00;95582.88;5017632;28;20597;-80
2022/08/28 03:06:55;;;;;;;35.95;28.83;;;;;;;17.19;100.00;95589.31;5017333;28;20638;-80
2022/08/28 03:09:20;;;;;;;35.35;27.85;;;;;;;17.21;100.00;95589.94;5022723;28;20264;-80
2022/08/28 03:11:46;;;;;;;33.95;27.20;;;;;;;17.24;100.00;95588.78;5002726;28;20184;-78
2022/08/28 03:14:11;;;;;;;36.58;26.48;;;;;;;17.25;100.00;95588.59;5016008;28;20207;-78
2022/08/28 03:16:36;;;;;;;32.70;26.30;;;;;;;17.26;100.00;95582.34;5001396;28;20218;-78
2022/08/28 03:19:02;;;;;;;35.17;27.80;;;;;;;17.24;100.00;95579.09;5021498;28;20654;-79
2022/08/28 03:21:28;;;;;;;31.50;25.60;;;;;;;17.27;100.00;95585.75;5024534;28;20272;-79
2022/08/28 03:23:53;;;;;;;36.50;27.75;;;;;;;17.24;100.00;95584.34;5011016;28;20190;-78
2022/08/28 03:26:20;;;;;;;36.13;26.40;;;;;;;17.15;100.00;95577.59;5035686;28;20248;-79
2022/08/28 03:28:48;;;;;;;28.13;24.42;;;;;;;17.19;100.00;95586.69;5037226;28;20562;-80
2022/08/28 03:31:20;;;;;;;27.25;24.08;;;;;;;17.22;100.00;95578.44;5020953;28;20188;-80
2022/08/28 03:33:46;;;;;;;33.58;25.10;;;;;;;17.23;100.00;95584.53;5022836;28;20175;-80
2022/08/28 03:36:14;;;;;;;28.60;24.15;;;;;;;17.15;100.00;95579.41;5026525;28;20624;-81
2022/08/28 03:38:40;;;;;;;34.67;25.65;;;;;;;17.12;100.00;95583.19;5017590;28;20221;-80
2022/08/28 03:41:10;;;;;;;30.85;26.25;;;;;;;17.10;100.00;95585.19;5022408;28;20202;-80
2022/08/28 03:43:35;;;;;;;29.92;24.88;;;;;;;17.09;100.00;95588.81;5032514;28;20182;-80
2022/08/28 03:46:03;;;;;;;29.77;25.08;;;;;;;17.15;100.00;95592.53;5032200;28;20252;-80
2022/08/28 03:48:31;;;;;;;30.40;24.17;;;;;;;17.15;100.00;95593.34;5017001;28;20185;-80
2022/08/28 03:50:57;;;;;;;32.05;25.05;;;;;;;17.00;100.00;95595.19;5043559;28;20536;-80
2022/08/28 03:53:24;;;;;;;29.65;23.70;;;;;;;17.04;100.00;95595.63;5029481;28;20278;-80
2022/08/28 03:55:49;;;;;;;30.23;25.10;;;;;;;17.10;100.00;95595.69;5031530;28;20197;-80
2022/08/28 03:58:15;;;;;;;29.55;24.67;;;;;;;17.11;100.00;95597.31;5018709;28;20637;-80
2022/08/28 04:00:41;;;;;;;33.95;25.98;;;;;;;17.03;100.00;95601.88;5015551;28;20256;-80
2022/08/28 04:03:07;;;;;;;32.67;26.10;;;;;;;17.02;100.00;95603.69;5012752;28;20190;-80
2022/08/28 04:05:33;;;;;;;31.00;26.65;;;;;;;17.03;100.00;95600.06;5024875;28;20206;-80
2022/08/28 04:08:02;;;;;;;30.85;24.90;;;;;;;17.10;100.00;95595.69;5039042;28;20658;-80
2022/08/28 04:10:28;;;;;;;31.30;24.45;;;;;;;17.07;100.00;95598.69;5018625;28;20220;-80
2022/08/28 04:12:53;;;;;;;32.85;25.20;;;;;;;17.05;100.00;95598.09;5007777;28;20669;-80
2022/08/28 04:15:20;;;;;;;33.05;27.02;;;;;;;17.03;100.00;95594.00;5047569;28;20201;-79
2022/08/28 04:17:45;;;;;;;30.88;27.15;;;;;;;17.00;100.00;95595.19;5045083;28;20181;-80
2022/08/28 04:20:10;;;;;;;32.72;27.02;;;;;;;17.03;100.00;95599.25;5025189;28;20206;-80
2022/08/28 04:22:36;;;;;;;36.47;25.00;;;;;;;17.10;100.00;95595.69;5021769;28;20556;-81
2022/08/28 04:25:02;;;;;;;33.97;25.92;;;;;;;17.04;100.00;95585.94;5009661;28;20187;-81
2022/08/28 04:27:27;;;;;;;35.45;26.98;;;;;;;17.03;100.00;95605.31;5034152;28;20190;-80
2022/08/28 04:29:53;;;;;;;41.50;30.20;;;;;;;16.96;100.00;95604.41;5031390;28;20198;-79
2022/08/28 04:32:18;;;;;;;35.70;26.58;;;;;;;17.01;100.00;95601.25;5044461;28;20281;-80
2022/08/28 04:34:43;;;;;;;33.20;26.98;;;;;;;16.93;100.00;95605.59;5040496;28;20194;-80
2022/08/28 04:37:09;;;;;;;35.65;27.20;;;;;;;16.91;100.00;95612.03;5021092;28;20273;-81
2022/08/28 04:39:34;;;;;;;33.67;26.52;;;;;;;16.93;100.00;95610.03;5017310;28;20646;-79
2022/08/28 04:41:59;;;;;;;37.83;29.23;;;;;;;16.92;100.00;95605.78;5013995;28;20234;-80
2022/08/28 04:44:25;;;;;;;32.38;26.58;;;;;;;16.96;100.00;95601.78;5000810;28;20182;-81
2022/08/28 04:46:50;;;;;;;38.63;29.05;;;;;;;16.83;100.00;95607.72;5037547;28;20285;-80
2022/08/28 04:49:16;;;;;;;39.70;29.35;;;;;;;16.92;100.00;95611.84;5040292;28;20198;-81
2022/08/28 04:51:41;;;;;;;44.17;29.90;;;;;;;16.93;100.00;95610.03;5027661;28;20178;-80
2022/08/28 04:54:07;;;;;;;39.45;29.73;;;;;;;16.94;100.00;95612.47;5048262;28;20213;-79
2022/08/28 04:56:33;;;;;;;39.65;30.38;;;;;;;16.87;100.00;95613.41;5033729;28;20237;-80
2022/08/28 04:59:00;;;;;;;40.00;31.45;;;;;;;16.87;100.00;95616.00;5016557;28;20182;-79
2022/08/28 05:01:25;;;;;;;38.35;27.70;;;;;;;16.85;100.00;95607.53;5015484;28;20279;-80
2022/08/28 05:03:56;;;;;;;41.95;32.10;;;;;;;16.80;100.00;95612.53;5023607;28;20232;-79
2022/08/28 05:06:25;;;;;;;46.42;31.10;;;;;;;16.80;100.00;95618.59;5015104;28;20225;-78
2022/08/28 05:08:51;;;;;;;37.70;29.90;;;;;;;16.89;100.00;95614.03;5041747;28;20286;-79
2022/08/28 05:11:20;;;;;;;37.03;29.50;;;;;;;16.96;100.00;95614.91;5033240;28;20736;-79
2022/08/28 05:13:45;;;;;;;40.80;29.73;;;;;;;16.85;100.00;95628.50;5015634;28;20522;-78
2022/08/28 05:16:11;;;;;;;43.53;32.45;;;;;;;16.73;100.00;95622.13;5044535;28;20300;-81
2022/08/28 05:18:37;;;;;;;43.75;31.45;;;;;;;16.72;100.00;95616.06;5014406;28;20204;-80
2022/08/28 05:21:02;;;;;;;36.63;30.35;;;;;;;16.75;100.00;95622.75;5003513;28;20367;-80
2022/08/28 05:23:28;;;;;;;39.60;30.35;;;;;;;16.57;100.00;95621.28;5034898;28;20182;-79
2022/08/28 05:25:54;;;;;;;44.00;31.25;;;;;;;16.53;100.00;95622.66;5012986;28;20206;-80
2022/08/28 05:28:19;;;;;;;41.35;30.65;;;;;;;16.58;100.00;95622.09;5014076;28;20190;-79
2022/08/28 05:30:45;;;;;;;43.55;31.20;;;;;;;16.65;100.00;95625.63;5014549;28;20188;-79
2022/08/28 05:33:12;;;;;;;40.80;30.67;;;;;;;16.67;100.00;95623.63;5040250;28;20251;-78
2022/08/28 05:35:40;;;;;;;47.60;31.40;;;;;;;16.72;100.00;95628.38;5026697;28;20213;-79
2022/08/28 05:38:06;;;;;;;37.88;27.80;;;;;;;16.67;100.00;95627.06;5030620;28;20594;-80
2022/08/28 05:40:31;;;;;;;40.45;29.45;;;;;;;16.83;100.00;95622.63;5030772;28;20201;-80
2022/08/28 05:42:56;;;;;;;41.85;30.83;;;;;;;16.81;100.00;95628.06;5044150;28;20186;-79
2022/08/28 05:45:22;;;;;;;37.53;29.55;;;;;;;16.93;100.00;95628.41;5003537;28;20206;-80
2022/08/28 05:47:48;;;;;;;41.03;28.40;;;;;;;17.03;100.00;95633.34;5023797;28;20182;-78
2022/08/28 05:50:13;;;;;;;38.15;29.08;;;;;;;17.15;100.00;95635.31;5016034;28;20186;-80
2022/08/28 05:52:42;;;;;;;34.35;25.77;;;;;;;17.18;100.00;95634.94;5034697;28;20183;-79
2022/08/28 05:55:09;;;;;;;36.13;26.63;;;;;;;17.21;100.00;95631.94;5015457;28;20239;-79
2022/08/28 05:57:34;;;;;;;31.13;25.92;;;;;;;17.33;100.00;95628.84;5025796;28;20186;-79
2022/08/28 06:00:01;;;;;;;36.15;26.83;;;;;;;17.11;100.00;95633.25;5025250;28;20185;-78
2022/08/28 06:02:26;;;;;;;38.35;27.50;;;;;;;17.19;100.00;95636.56;5025152;28;20692;-79
2022/08/28 06:04:52;;;;;;;34.47;26.63;;;;;;;17.23;100.00;95637.81;5005519;28;20194;-79
2022/08/28 06:07:18;;;;;;;29.55;23.77;;;;;;;17.36;100.00;95637.13;5003392;28;20666;-78
2022/08/28 06:09:43;;;;;;;34.05;26.60;;;;;;;17.25;100.00;95635.00;5016704;28;20220;-79
2022/08/28 06:12:09;;;;;;;31.80;24.85;;;;;;;17.24;100.00;95641.25;5020386;28;20586;-78
2022/08/28 06:14:34;;;;;;;34.20;25.63;;;;;;;17.31;100.00;95646.56;5005884;28;20784;-79
2022/08/28 06:17:01;;;;;;;35.30;25.45;;;;;;;17.39;100.00;95639.38;5043291;28;20207;-78
2022/08/28 06:19:28;;;;;;;31.25;24.92;;;;;;;17.41;100.00;95639.22;5016552;28;20194;-78
2022/08/28 06:21:56;;;;;;;33.22;26.25;;;;;;;17.46;100.00;95644.69;5002563;28;20214;-78
2022/08/28 06:24:21;;;;;;;36.90;26.90;;;;;;;17.41;100.00;95645.28;5008520;28;20183;-79
2022/08/28 06:26:47;;;;;;;34.45;24.92;;;;;;;17.53;100.00;95645.56;5028511;28;20208;-80
2022/08/28 06:29:14;;;;;;;30.15;23.98;;;;;;;17.30;100.00;95647.56;5039816;28;20185;-79
2022/08/28 06:31:40;;;;;;;32.63;25.13;;;;;;;17.41;100.00;95655.78;5010525;28;20182;-77
2022/08/28 06:34:05;;;;;;;29.98;23.50;;;;;;;17.31;100.00;95660.50;5028126;28;20189;-78
2022/08/28 06:36:33;;;;;;;26.50;23.02;;;;;;;17.25;100.00;95656.81;5032975;28;20249;-78
2022/08/28 06:38:59;;;;;;;34.10;25.80;;;;;;;17.16;100.00;95657.94;5016374;28;20277;-77
2022/08/28 06:41:26;;;;;;;35.20;25.50;;;;;;;17.06;100.00;95662.66;5019763;28;20202;-77
2022/08/28 06:43:51;;;;;;;29.15;23.90;;;;;;;17.08;100.00;95659.84;5017675;28;20177;-79
2022/08/28 06:46:17;;;;;;;34.40;24.42;;;;;;;17.24;100.00;95668.31;5013572;28;20217;-78
2022/08/28 06:48:42;;;;;;;29.50;24.00;;;;;;;17.26;100.00;95668.94;5011531;28;20189;-78
2022/08/28 06:51:10;;;;;;;34.17;24.38;;;;;;;17.16;100.00;95665.00;5033155;28;20178;-78
2022/08/28 06:53:36;;;;;;;31.63;24.73;;;;;;;17.09;100.00;95664.91;5015448;28;20238;-78
2022/08/28 06:56:13;;;;;;;29.67;24.35;;;;;;;16.99;100.00;95669.66;5019216;28;20262;-79
2022/08/28 06:58:40;;;;;;;35.50;25.27;;;;;;;17.18;100.00;95669.06;5022792;28;20184;-78
2022/08/28 07:01:12;;;;;;;33.50;24.70;;;;;;;17.13;100.00;95675.84;5016966;28;20678;-78
2022/08/28 07:03:39;;;;;;;34.05;25.30;;;;;;;17.15;100.00;95677.31;5020487;28;20223;-78
2022/08/28 07:06:06;;;;;;;29.10;25.17;;;;;;;17.07;100.00;95673.97;5015883;28;20226;-77
2022/08/28 07:08:32;;;;;;;34.92;27.08;;;;;;;17.19;100.00;95675.91;5015688;28;20221;-78
2022/08/28 07:10:58;;;;;;;33.25;26.08;;;;;;;17.18;100.00;95679.53;5016070;28;20549;-79
2022/08/28 07:13:24;;;;;;;33.92;25.75;;;;;;;17.18;100.00;95679.53;5022152;28;20182;-79
2022/08/28 07:15:50;;;;;;;31.02;26.40;;;;;;;17.24;100.00;95686.69;5026223;28;20281;-78
2022/08/28 07:18:16;;;;;;;31.45;24.90;;;;;;;17.34;100.00;95682.94;5047384;28;20181;-79
2022/08/28 07:20:42;;;;;;;33.35;25.25;;;;;;;17.37;100.00;95688.63;5032384;28;20728;-79
2022/08/28 07:23:07;;;;;;;32.25;25.55;;;;;;;17.34;100.00;95693.44;5018147;28;20239;-78
2022/08/28 07:25:32;;;;;;;37.97;26.05;;;;;;;17.44;100.00;95691.31;5029570;28;20233;-78
2022/08/28 07:27:58;;;;;;;36.13;27.27;;;;;;;17.60;100.00;95688.47;5027436;28;20290;-80
2022/08/28 07:30:24;;;;;;;29.23;24.27;;;;;;;17.52;100.00;95688.59;5024187;28;20206;-79
2022/08/28 07:32:49;;;;;;;34.88;24.88;;;;;;;17.61;100.00;95689.28;5004268;28;20229;-81
2022/08/28 07:35:15;;;;;;;38.40;26.25;;;;;;;17.51;100.00;95693.03;5014971;28;20210;-80
2022/08/28 07:37:41;;;;;;;33.20;26.05;;;;;;;17.58;100.00;95692.25;5020562;28;20182;-79
2022/08/28 07:40:08;;;;;;;31.23;22.77;;;;;;;17.79;100.00;95690.50;5032982;28;20178;-79
2022/08/28 07:45:18;;;;;;;34.88;26.02;;;;;;;17.87;100.00;95694.00;5028059;28;20204;-78
2022/08/28 07:47:44;;;;;;;36.53;25.98;;;;;;;17.72;100.00;95689.59;5033962;28;20190;-78
2022/08/28 07:50:09;;;;;;;34.45;25.20;;;;;;;17.88;100.00;95699.06;5016537;28;20183;-80
2022/08/28 07:52:36;;;;;;;37.92;25.10;;;;;;;17.99;100.00;95700.34;5016718;28;20191;-79
2022/08/28 07:55:03;;;;;;;31.50;24.70;;;;;;;18.21;100.00;95709.84;5019769;28;20178;-78
2022/08/28 07:57:30;;;;;;;35.08;25.00;;;;;;;18.26;99.75;95711.88;5023423;28;20622;-79
2022/08/28 07:59:55;;;;;;;32.58;24.90;;;;;;;18.11;99.39;95714.63;5031947;28;20213;-79
2022/08/28 08:02:20;;;;;;;38.75;24.92;;;;;;;18.19;99.35;95719.72;5019457;28;20213;-79
2022/08/28 08:04:46;;;;;;;28.05;21.75;;;;;;;18.28;99.06;95715.94;5050482;28;20178;-82
2022/08/28 08:07:11;;;;;;;33.80;24.27;;;;;;;18.36;98.12;95718.41;5008282;28;20282;-83
2022/08/28 08:09:39;;;;;;;30.63;23.02;;;;;;;18.26;98.14;95728.47;5036650;28;20236;-78
2022/08/28 08:12:04;;;;;;;32.60;23.23;;;;;;;18.33;99.00;95729.34;5031262;28;20182;-79
2022/08/28 08:14:30;;;;;;;31.15;24.42;;;;;;;18.46;97.02;95735.69;5051516;28;20174;-78
2022/08/28 08:16:55;;;;;;;33.92;24.88;;;;;;;18.37;97.24;95729.75;5023122;28;20206;-78
2022/08/28 08:19:20;;;;;;;32.85;23.80;;;;;;;18.55;97.63;95731.88;5016522;28;20232;-79
2022/08/28 08:21:47;;;;;;;31.45;24.70;;;;;;;18.63;95.95;95739.63;5034079;28;20211;-78
2022/08/28 08:24:19;;;;;;;32.13;23.80;;;;;;;18.73;95.69;95745.41;5019664;28;20198;-79
2022/08/28 08:26:44;;;;;;;30.55;22.85;;;;;;;18.76;94.61;95747.66;5017304;28;20228;-79
2022/08/28 08:29:11;;;;;;;31.77;23.40;;;;;;;18.57;95.45;95750.94;5030612;28;20210;-78
2022/08/28 08:31:37;;;;;;;30.33;22.85;;;;;;;18.30;97.04;95748.13;5048892;28;20176;-79
2022/08/28 08:34:03;;;;;;;32.72;22.92;;;;;;;18.50;96.80;95757.97;5010846;28;20186;-79
2022/08/28 08:36:31;;;;;;;29.42;22.65;;;;;;;18.47;97.24;95766.25;5044684;28;20228;-78
2022/08/28 08:38:57;;;;;;;31.10;23.88;;;;;;;18.66;95.95;95761.16;5037452;28;20182;-78
2022/08/28 08:41:32;;;;;;;30.52;22.95;;;;;;;18.79;95.94;95765.66;5050233;28;20210;-78
2022/08/28 08:44:15;;;;;;;34.13;24.38;;;;;;;18.82;94.53;95759.22;5047354;28;20525;-80
2022/08/28 08:46:45;;;;;;;28.20;22.42;;;;;;;18.93;94.35;95762.13;5025203;28;20206;-80
2022/08/28 08:49:17;;;;;;;25.17;20.75;;;;;;;19.13;93.02;95774.56;5019101;28;20261;-80
2022/08/28 08:51:52;;;;;;;34.85;23.60;;;;;;;19.04;92.19;95778.38;5025316;28;20749;-80
2022/08/28 08:54:18;;;;;;;27.90;21.95;;;;;;;19.42;91.62;95776.91;5046289;28;20216;-80
2022/08/28 08:56:45;;;;;;;29.50;22.10;;;;;;;19.47;89.85;95771.88;5045695;28;20261;-80
2022/08/28 08:59:17;;;;;;;26.20;21.58;;;;;;;19.57;89.87;95773.38;5023675;28;20190;-81
2022/08/28 09:01:49;;;;;;;33.42;22.50;;;;;;;19.60;88.58;95783.50;5016719;28;20213;-81
2022/08/28 09:04:33;;;;;;;24.80;18.52;;;;;;;20.23;84.99;95776.97;5016367;28;20185;-81
2022/08/28 09:07:14;;;;;;;30.48;21.65;;;;;;;20.38;84.74;95771.47;5019719;28;20206;-82
2022/08/28 09:09:49;;;;;;;30.23;21.23;;;;;;;20.44;84.44;95773.34;5040565;28;20182;-77
2022/08/28 09:12:24;;;;;;;27.10;20.15;;;;;;;20.82;83.28;95777.97;5024606;28;20174;-80
2022/08/28 09:15:09;;;;;;;26.63;19.73;;;;;;;21.31;78.17;95781.94;5019589;28;20195;-79
2022/08/28 09:17:37;;;;;;;28.85;18.42;;;;;;;21.31;79.56;95782.75;5034368;28;20546;-78
2022/08/28 09:20:08;;;;;;;22.23;17.70;;;;;;;21.29;79.27;95782.16;5032200;28;20537;-80
2022/08/28 09:22:34;;;;;;;22.15;17.63;;;;;;;20.97;78.96;95788.28;5016659;28;20216;-81
2022/08/28 09:24:59;;;;;;;20.52;16.17;;;;;;;20.93;78.95;95780.78;5024671;28;20182;-78
2022/08/28 09:27:30;;;;;;;17.15;15.20;;;;;;;21.11;78.23;95787.22;5038073;28;20646;-80
2022/08/28 09:30:02;;;;;;;22.20;16.17;;;;;;;21.04;78.93;95782.00;5012439;28;20191;-80
2022/08/28 09:32:40;;;;;;;18.92;16.25;;;;;;;20.96;79.52;95784.84;5015436;28;20187;-81
2022/08/28 09:35:13;;;;;;;18.65;15.85;;;;;;;20.76;78.49;95794.59;5014425;28;20552;-80
2022/08/28 09:37:40;;;;;;;20.80;16.65;;;;;;;20.71;80.08;95791.78;5013970;28;20190;-78
2022/08/28 09:40:23;;;;;;;19.02;15.70;;;;;;;20.85;79.00;95796.84;5023152;28;20245;-81
2022/08/28 09:43:27;;;;;;;17.90;15.85;;;;;;;20.68;78.59;95790.38;5041267;28;20182;-80
2022/08/28 09:45:58;;;;;;;17.98;14.70;;;;;;;20.77;78.83;95797.06;5018084;28;20344;-79
2022/08/28 09:48:34;;;;;;;17.90;14.80;;;;;;;20.55;80.50;95793.81;5032907;28;20186;-79
2022/08/28 09:51:08;;;;;;;15.27;13.68;;;;;;;20.63;78.57;95790.97;5016340;28;20192;-79
2022/08/28 09:53:37;;;;;;;20.38;15.45;;;;;;;20.45;81.09;95793.41;5021841;28;20186;-80
2022/08/28 09:56:23;;;;;;;18.30;15.88;;;;;;;20.80;79.18;95796.66;5041079;28;20217;-78
2022/08/28 09:58:58;;;;;;;16.30;13.63;;;;;;;20.97;77.85;95797.03;5011524;28;20190;-79
2022/08/28 10:01:43;;;;;;;16.13;13.45;;;;;;;21.13;77.61;95791.31;5016136;28;20201;-79
2022/08/28 10:04:22;;;;;;;15.77;14.07;;;;;;;21.31;75.85;95798.59;5029816;28;20219;-78
2022/08/28 10:06:58;;;;;;;18.77;13.88;;;;;;;21.17;75.56;95792.50;5043651;28;20646;-80
2022/08/28 10:09:40;;;;;;;13.95;12.48;;;;;;;21.18;75.10;95803.88;5022518;28;20184;-79
2022/08/28 10:12:05;;;;;;;17.92;14.68;;;;;;;20.53;77.43;95797.69;5019747;28;20186;-80
2022/08/28 10:14:56;;;;;;;17.05;12.82;;;;;;;20.54;78.82;95794.03;5015405;28;20551;-80
2022/08/28 10:18:16;;;;;;;16.10;12.18;;;;;;;20.91;76.19;95796.00;5028655;28;20181;-79
2022/08/28 10:21:11;;;;;;;14.30;11.60;;;;;;;20.99;74.23;95799.44;4948486;28;20731;-80
2022/08/28 10:23:41;;;;;;;16.17;11.23;;;;;;;20.41;77.27;95791.34;5006643;28;20198;-80
2022/08/28 10:26:18;;;;;;;13.38;10.80;;;;;;;21.01;75.21;95792.94;5042872;28;20260;-80
2022/08/28 10:29:06;;;;;;;10.57;9.57;;;;;;;20.91;70.72;95796.00;5007939;28;20225;-79
2022/08/28 10:31:41;;;;;;;10.52;9.43;;;;;;;21.24;70.63;95796.97;5014343;28;20254;-79
2022/08/28 10:34:21;;;;;;;11.20;10.10;;;;;;;21.22;68.99;95799.81;5043118;28;20741;-80
2022/08/28 10:36:57;;;;;;;12.90;9.50;;;;;;;21.82;68.20;95794.31;5020147;28;20206;-81
2022/08/28 10:40:01;;;;;;;12.48;8.50;;;;;;;22.12;66.22;95794.59;5012845;28;20662;-78
2022/08/28 10:42:35;;;;;;;9.60;8.57;;;;;;;22.22;65.17;95797.56;5035433;28;20726;-79
2022/08/28 10:45:21;;;;;;;11.93;8.68;;;;;;;22.64;62.84;95793.38;5016695;28;20588;-81
2022/08/28 10:48:22;;;;;;;8.93;7.45;;;;;;;22.41;65.17;95793.97;5029563;28;20193;-80
2022/08/28 10:51:01;;;;;;;13.77;9.57;;;;;;;21.36;69.11;95795.31;5045344;28;20244;-80
2022/08/28 10:53:51;;;;;;;10.35;9.13;;;;;;;21.14;70.29;95800.03;5010220;28;20265;-80
2022/08/28 10:56:19;;;;;;;9.60;8.75;;;;;;;21.21;70.37;95796.38;5018618;28;20210;-80
2022/08/28 10:58:48;;;;;;;11.95;9.25;;;;;;;20.77;71.77;95794.44;5033552;28;20230;-79
2022/08/28 11:01:28;;;;;;;10.70;9.38;;;;;;;20.92;71.56;95794.19;5019434;28;20582;-81
2022/08/28 11:03:56;;;;;;;11.15;10.00;;;;;;;21.01;71.70;95797.41;5033522;28;20182;-80
2022/08/28 11:06:45;;;;;;;11.27;10.02;;;;;;;20.52;72.62;95794.22;5026541;28;20210;-80
2022/08/28 11:09:46;;;;;;;9.93;8.85;;;;;;;21.12;71.04;95789.69;5017468;28;20183;-79
2022/08/28 11:12:18;;;;;;;11.00;7.80;;;;;;;20.99;70.06;95800.25;4989070;28;20192;-79
2022/08/28 11:14:46;;;;;;;9.25;8.25;;;;;;;21.14;68.00;95802.69;4990480;28;20210;-81
2022/08/28 11:17:21;;;;;;;10.57;7.90;;;;;;;21.24;67.48;95803.06;4972209;28;20667;-79
2022/08/28 11:20:14;;;;;;;10.10;8.25;;;;;;;21.35;66.80;95802.44;4985326;28;20203;-81
2022/08/28 11:22:45;;;;;;;11.02;8.40;;;;;;;21.62;66.43;95802.34;4965591;28;20211;-80
2022/08/28 11:25:29;;;;;;;8.55;7.75;;;;;;;21.51;65.98;95795.88;4960847;28;20223;-78